Latest Weather Observations for PORTABLE RFSNSW12

IDN60801

Issued at 5:42 am EDT Tuesday 22 October 2019 (issued every 10 minutes, with the page automatically refreshed every 10 minutes)

About weather observations | Map of weather stations | Latest weather observations for NSW | Other Formats
Station Details ID: 250066 Name: PORTABLE RFSNSW12 Lat: -29.94 Lon: 152.73 Height: 196.0 m
Data from the previous 72 hours. | See also: Recent months for locations in New South Wales
Date/Time
EDT
Temp
°C
App
Temp
°C
Dew
Point
°C
Rel
Hum
%
Delta-T
°C
Wind Press
QNH
hPa
Press
MSL
hPa
Rain since
9am
mm
Dir  Spd
km/h
Gust
km/h
Spd
kts
Gust
kts
22/05:30am 7.4 - 7.3 99 0.0 - - - - - - - 0.0
22/05:20am 7.4 - 7.3 99 0.0 - - - - - - - 0.0
22/05:10am 7.5 - 7.4 99 0.0 - - - - - - - 0.0
22/05:00am 7.6 - 7.5 99 0.0 - - - - - - - 0.0
22/04:50am 7.7 - 7.6 99 0.0 - - - - - - - 0.0
22/04:40am 7.7 - 7.6 99 0.0 - - - - - - - 0.0
22/04:30am 7.8 - 7.7 99 0.0 - - - - - - - 0.0
22/04:20am 8.0 - 7.9 99 0.0 - - - - - - - 0.0
22/04:10am 8.1 - 8.0 99 0.0 - - - - - - - 0.0
22/04:00am 8.3 - 8.3 100 0.0 - - - - - - - 0.0
22/03:50am 8.3 - 8.2 99 0.0 - - - - - - - 0.0
22/03:40am 8.2 - 8.1 99 0.0 - - - - - - - 0.0
22/03:30am 8.3 - 8.2 99 0.0 - - - - - - - 0.0
22/03:20am 8.4 - 8.3 99 0.0 - - - - - - - 0.0
22/03:10am 8.4 - 8.3 99 0.0 - - - - - - - 0.0
22/03:00am 8.5 - 8.4 99 0.0 - - - - - - - 0.0
22/02:50am 8.6 - 8.4 99 0.1 - - - - - - - 0.0
22/02:40am 8.4 - 8.2 99 0.1 - - - - - - - 0.0
22/02:30am 8.7 - 8.6 99 0.0 - - - - - - - 0.0
22/02:20am 8.9 - 8.8 99 0.0 - - - - - - - 0.0
22/02:10am 9.1 - 8.9 99 0.1 - - - - - - - 0.0
22/02:00am 9.2 - 9.0 99 0.1 - - - - - - - 0.0
22/01:50am 9.1 - 8.9 99 0.1 - - - - - - - 0.0
22/01:40am 9.2 - 9.0 99 0.1 - - - - - - - 0.0
22/01:30am 9.3 - 9.1 99 0.1 - - - - - - - 0.0
22/01:20am 9.5 - 9.2 98 0.1 - - - - - - - 0.0
22/01:10am 9.5 - 9.2 98 0.1 - - - - - - - 0.0
22/01:00am 9.6 - 9.3 98 0.2 - - - - - - - 0.0
22/12:50am 9.7 - 9.4 98 0.2 - - - - - - - 0.0
22/12:40am 9.8 - 9.5 98 0.2 - - - - - - - 0.0
22/12:30am 9.9 - 9.4 97 0.3 - - - - - - - 0.0
22/12:20am 10.0 - 9.5 97 0.3 - - - - - - - 0.0
22/12:10am 10.2 - 9.5 95 0.4 - - - - - - - 0.0
22/12:00am 10.4 - 9.7 95 0.4 - - - - - - - 0.0
 
Date/Time
EDT
Temp
°C
App
Temp
°C
Dew
Point
°C
Rel
Hum
%
Delta-T
°C
Wind Press
QNH
hPa
Press
MSL
hPa
Rain since
9am
mm
Dir  Spd
km/h
Gust
km/h
Spd
kts
Gust
kts
21/11:50pm 10.5 - 9.8 95 0.4 - - - - - - - 0.0
21/11:40pm 10.6 - 9.7 94 0.5 - - - - - - - 0.0
21/11:30pm 10.8 - 10.0 95 0.4 - - - - - - - 0.0
21/11:20pm 11.0 - 10.0 93 0.5 - - - - - - - 0.0
21/11:10pm 11.1 - 10.1 94 0.5 - - - - - - - 0.0
21/11:00pm 11.2 - 10.2 94 0.5 - - - - - - - 0.0
21/10:50pm 11.4 - 10.2 92 0.6 - - - - - - - 0.0
21/10:40pm 11.6 - 10.4 92 0.6 - - - - - - - 0.0
21/10:30pm 11.8 - 10.4 91 0.7 - - - - - - - 0.0
21/10:20pm 12.0 - 10.1 88 1.0 - - - - - - - 0.0
21/10:10pm 12.1 - 10.3 89 0.9 - - - - - - - 0.0
21/10:00pm 12.3 - 10.3 87 1.0 - - - - - - - 0.0
21/09:50pm 12.4 - 10.3 87 1.1 - - - - - - - 0.0
21/09:40pm 12.6 - 10.0 84 1.3 - - - - - - - 0.0
21/09:30pm 13.0 - 9.7 80 1.7 - - - - - - - 0.0
21/09:20pm 13.2 - 9.8 80 1.8 - - - - - - - 0.0
21/09:10pm 13.4 - 9.6 78 2.0 - - - - - - - 0.0
21/09:00pm 13.7 - 9.5 76 2.2 - - - - - - - 0.0
21/08:50pm 14.0 - 9.7 75 2.2 - - - - - - - 0.0
21/08:40pm 14.4 - 9.6 73 2.5 - - - - - - - 0.0
21/08:30pm 14.8 - 9.7 71 2.7 - - - - - - - 0.0
21/08:20pm 15.3 - 9.9 70 2.8 - - - - - - - 0.0
21/08:10pm 15.9 - 9.8 67 3.2 - - - - - - - 0.0
21/08:00pm 16.5 - 9.9 65 3.5 - - - - - - - 0.0
21/07:50pm 17.0 - 9.9 63 3.8 - - - - - - - 0.0
21/07:40pm 17.3 - 9.6 60 4.1 - - - - - - - 0.0
21/07:30pm 17.6 - 9.8 60 4.2 - - - - - - - 0.0
21/07:20pm 18.0 - 9.8 58 4.4 - - - - - - - 0.0
21/07:10pm 18.4 - 10.0 58 4.5 - - - - - - - 0.0
21/07:00pm 18.9 - 9.9 56 4.8 - - - - - - - 0.0
21/06:50pm 19.2 - 9.5 53 5.2 - - - - - - - 0.0
21/06:40pm 19.6 - 9.3 51 5.5 - - - - - - - 0.0
21/06:30pm 19.9 - 9.0 49 5.8 - - - - - - - 0.0
21/06:20pm 20.2 - 9.0 48 6.0 - - - - - - - 0.0
21/06:10pm 20.6 - 8.7 46 6.3 - - - - - - - 0.0
21/06:00pm 21.0 - 8.5 44 6.6 - - - - - - - 0.0
21/05:50pm 21.5 - 9.1 45 6.7 - - - - - - - 0.0
21/05:40pm 21.1 - 9.1 46 6.4 - - - - - - - 0.0
21/05:30pm 21.4 - 9.5 46 6.4 - - - - - - - 0.0
21/05:20pm 21.9 - 9.7 45 6.6 - - - - - - - 0.0
21/05:10pm 23.5 - 9.4 40 7.7 - - - - - - - 0.0
21/05:00pm 23.8 - 9.2 39 8.0 - - - - - - - 0.0
21/04:50pm 23.7 - 8.7 38 8.1 - - - - - - - 0.0
21/04:40pm 22.7 - 8.8 41 7.5 - - - - - - - 0.0
21/04:30pm 23.2 - 8.9 40 7.7 - - - - - - - 0.0
21/04:20pm 24.6 - 9.0 37 8.5 - - - - - - - 0.0
21/04:10pm 26.0 - 8.0 32 9.7 - - - - - - - 0.0
21/04:00pm 25.4 - 9.2 36 8.9 - - - - - - - 0.0
21/03:50pm 24.7 - 7.3 33 9.2 - - - - - - - 0.0
21/03:40pm 24.8 - 7.8 33 9.1 - - - - - - - 0.0
21/03:30pm 23.5 - 6.8 34 8.7 - - - - - - - 0.0
21/03:20pm 23.5 - 7.0 34 8.6 - - - - - - - 0.0
21/03:10pm 24.5 - 7.5 33 9.0 - - - - - - - 0.0
21/03:00pm 26.3 - 7.6 30 10.0 - - - - - - - 0.0
21/02:50pm 26.7 - 7.6 29 10.3 - - - - - - - 0.0
21/02:40pm 26.0 - 6.0 27 10.4 - - - - - - - 0.0
21/02:30pm 26.0 - 6.7 29 10.2 - - - - - - - 0.0
21/02:20pm 24.5 - 6.8 32 9.3 - - - - - - - 0.0
21/02:10pm 23.7 - 6.6 33 8.9 - - - - - - - 0.0
21/02:00pm 24.8 - 6.9 31 9.4 - - - - - - - 0.0
21/01:50pm 24.2 - 7.0 33 9.0 - - - - - - - 0.0
21/01:40pm 23.4 - 7.4 35 8.4 - - - - - - - 0.0
21/01:30pm 23.1 - 7.3 36 8.3 - - - - - - - 0.0
21/01:20pm 23.0 - 7.6 37 8.1 - - - - - - - 0.0
21/01:10pm 23.3 - 8.0 37 8.1 - - - - - - - 0.0
21/01:00pm 23.4 - 7.1 35 8.5 - - - - - - - 0.0
21/12:50pm 23.3 - 6.7 34 8.6 - - - - - - - 0.0
21/12:40pm 23.4 - 8.0 37 8.2 - - - - - - - 0.0
21/12:30pm 24.5 - 8.4 36 8.7 - - - - - - - 0.0
21/12:20pm 24.3 - 7.4 34 8.9 - - - - - - - 0.0
21/12:10pm 25.2 - 8.9 35 8.9 - - - - - - - 0.0
21/12:00pm 24.4 - 7.9 35 8.8 - - - - - - - 0.0
21/11:50am 23.6 - 9.3 40 7.8 - - - - - - - 0.0
21/11:40am 23.5 - 7.6 36 8.4 - - - - - - - 0.0
21/11:30am 23.0 - 7.4 36 8.2 - - - - - - - 0.0
21/11:20am 22.1 - 7.5 39 7.6 - - - - - - - 0.0
21/11:10am 22.7 - 8.2 39 7.7 - - - - - - - 0.0
21/11:00am 21.7 - 9.0 44 6.8 - - - - - - - 0.0
21/10:50am 22.8 - 8.3 39 7.7 - - - - - - - 0.0
21/10:40am 21.9 - 8.4 42 7.2 - - - - - - - 0.0
21/10:30am 22.3 - 8.8 42 7.2 - - - - - - - 0.0
21/10:20am 22.8 - 9.3 42 7.3 - - - - - - - 0.0
21/10:10am 22.0 - 8.9 43 7.0 - - - - - - - 0.0
21/10:00am 22.2 - 9.0 43 7.1 - - - - - - - 0.0
21/09:50am 22.4 - 8.5 41 7.4 - - - - - - - 0.0
21/09:40am 21.9 - 8.5 42 7.1 - - - - - - - 0.0
21/09:30am 21.5 - 9.9 47 6.3 - - - - - - - 0.0
21/09:20am 21.7 - 10.5 49 6.2 - - - - - - - 0.0
21/09:10am 20.8 - 10.1 50 5.8 - - - - - - - 0.0
21/09:00am 19.8 - 10.8 56 4.9 - - - - - - - 0.0
21/08:50am 18.5 - 11.4 63 3.9 - - - - - - - 0.0
21/08:40am 18.3 - 11.1 63 3.9 - - - - - - - 0.0
21/08:30am 17.5 - 11.0 65 3.5 - - - - - - - 0.0
21/08:20am 17.1 - 10.9 67 3.4 - - - - - - - 0.0
21/08:10am 16.3 - 11.1 71 2.8 - - - - - - - 0.0
21/08:00am 15.8 - 11.3 74 2.4 - - - - - - - 0.0
21/07:50am 15.2 - 11.0 76 2.3 - - - - - - - 0.0
21/07:40am 14.2 - 11.2 82 1.6 - - - - - - - 0.0
21/07:30am 13.0 - 12.0 94 0.5 - - - - - - - 0.0
21/07:20am 11.7 - 11.3 97 0.2 - - - - - - - 0.0
21/07:10am 10.5 - 10.2 98 0.2 - - - - - - - 0.0
21/07:00am 9.5 - 9.3 99 0.1 - - - - - - - 0.0
21/06:50am 8.8 - 8.7 99 0.0 - - - - - - - 0.0
21/06:40am 8.5 - 8.4 99 0.0 - - - - - - - 0.0
21/06:30am 8.5 - 8.3 99 0.1 - - - - - - - 0.0
21/06:20am 8.4 - 8.3 99 0.0 - - - - - - - 0.0
21/06:10am 8.4 - 8.3 99 0.0 - - - - - - - 0.0
21/06:00am 8.5 - 8.3 99 0.1 - - - - - - - 0.0
21/05:50am 8.5 - 8.3 99 0.1 - - - - - - - 0.0
21/05:40am 8.7 - 8.5 99 0.1 - - - - - - - 0.0
21/05:30am 8.9 - 8.7 99 0.1 - - - - - - - 0.0
21/05:20am 9.1 - 8.9 99 0.1 - - - - - - - 0.0
21/05:10am 9.3 - 9.1 99 0.1 - - - - - - - 0.0
21/05:00am 9.4 - 9.2 99 0.1 - - - - - - - 0.0
21/04:50am 9.5 - 9.3 99 0.1 - - - - - - - 0.0
21/04:40am 9.8 - 9.5 98 0.2 - - - - - - - 0.0
21/04:30am 10.1 - 9.8 98 0.2 - - - - - - - 0.0
21/04:20am 10.1 - 9.8 98 0.2 - - - - - - - 0.0
21/04:10am 10.2 - 9.9 98 0.2 - - - - - - - 0.0
21/04:00am 10.3 - 10.0 98 0.2 - - - - - - - 0.0
21/03:50am 10.3 - 9.9 97 0.2 - - - - - - - 0.0
21/03:40am 10.5 - 10.1 97 0.2 - - - - - - - 0.0
21/03:30am 10.6 - 10.2 97 0.2 - - - - - - - 0.0
21/03:20am 10.9 - 10.3 96 0.3 - - - - - - - 0.0
21/03:10am 11.0 - 10.5 97 0.3 - - - - - - - 0.0
21/03:00am 11.1 - 10.6 97 0.3 - - - - - - - 0.0
21/02:50am 11.4 - 10.5 94 0.5 - - - - - - - 0.0
21/02:40am 11.7 - 10.7 94 0.5 - - - - - - - 0.0
21/02:30am 12.0 - 10.7 92 0.7 - - - - - - - 0.0
21/02:20am 12.3 - 10.5 89 0.9 - - - - - - - 0.0
21/02:10am 12.8 - 10.5 86 1.2 - - - - - - - 0.0
21/02:00am 13.3 - 10.8 85 1.3 - - - - - - - 0.0
21/01:50am 13.7 - 10.9 83 1.5 - - - - - - - 0.0
21/01:40am 14.1 - 10.9 81 1.7 - - - - - - - 0.0
21/01:30am 14.4 - 11.1 80 1.8 - - - - - - - 0.0
21/01:20am 14.7 - 11.2 79 1.9 - - - - - - - 0.0
21/01:10am 15.0 - 11.3 78 2.0 - - - - - - - 0.0
21/01:00am 15.2 - 11.4 78 2.1 - - - - - - - 0.0
21/12:50am 15.3 - 11.4 77 2.1 - - - - - - - 0.0
21/12:40am 15.4 - 11.4 77 2.2 - - - - - - - 0.0
21/12:30am 15.5 - 11.3 76 2.3 - - - - - - - 0.0
21/12:20am 15.6 - 11.6 77 2.2 - - - - - - - 0.0
21/12:10am 15.7 - 11.8 77 2.1 - - - - - - - 0.0
21/12:00am 15.7 - 11.6 76 2.2 - - - - - - - 0.0
 
Date/Time
EDT
Temp
°C
App
Temp
°C
Dew
Point
°C
Rel
Hum
%
Delta-T
°C
Wind Press
QNH
hPa
Press
MSL
hPa
Rain since
9am
mm
Dir  Spd
km/h
Gust
km/h
Spd
kts
Gust
kts
20/11:50pm 15.8 - 11.5 75 2.3 - - - - - - - 0.0
20/11:40pm 15.9 - 11.5 75 2.4 - - - - - - - 0.0
20/11:30pm 15.9 - 11.7 76 2.3 - - - - - - - 0.0
20/11:20pm 16.0 - 11.6 75 2.4 - - - - - - - 0.0
20/11:10pm 16.0 - 11.2 73 2.6 - - - - - - - 0.0
20/11:00pm 16.1 - 11.4 73 2.6 - - - - - - - 0.0
20/10:50pm 16.1 - 11.0 72 2.8 - - - - - - - 0.0
20/10:40pm 16.1 - 11.2 72 2.7 - - - - - - - 0.0
20/10:30pm 16.1 - 10.9 71 2.8 - - - - - - - 0.0
20/10:20pm 16.1 - 10.7 70 2.9 - - - - - - - 0.0
20/10:10pm 16.2 - 11.6 74 2.5 - - - - - - - 0.0
20/10:00pm 16.2 - 11.0 71 2.8 - - - - - - - 0.0
20/09:50pm 16.2 - 11.6 74 2.5 - - - - - - - 0.0
20/09:40pm 16.2 - 11.2 72 2.7 - - - - - - - 0.0
20/09:30pm 16.2 - 11.0 71 2.8 - - - - - - - 0.0
20/09:20pm 16.2 - 11.4 73 2.6 - - - - - - - 0.0
20/09:10pm 16.2 - 11.3 73 2.7 - - - - - - - 0.0
20/09:00pm 16.1 - 10.8 71 2.9 - - - - - - - 0.0
20/08:50pm 16.0 - 10.7 71 2.8 - - - - - - - 0.0
20/08:40pm 15.9 - 11.2 73 2.5 - - - - - - - 0.0
20/08:30pm 15.8 - 11.1 73 2.5 - - - - - - - 0.0
20/08:20pm 15.8 - 10.9 72 2.6 - - - - - - - 0.0
20/08:10pm 15.8 - 10.8 72 2.7 - - - - - - - 0.0
20/08:00pm 16.1 - 10.8 71 2.9 - - - - - - - 0.0
20/07:50pm 16.5 - 10.8 69 3.1 - - - - - - - 0.0
20/07:40pm 16.8 - 10.6 67 3.3 - - - - - - - 0.0
20/07:30pm 17.0 - 10.5 65 3.5 - - - - - - - 0.0
20/07:20pm 17.3 - 10.5 64 3.7 - - - - - - - 0.0
20/07:10pm 17.5 - 10.3 62 3.9 - - - - - - - 0.0
20/07:00pm 17.6 - 10.4 62 3.9 - - - - - - - 0.0
20/06:50pm 17.7 - 10.4 62 3.9 - - - - - - - 0.0
20/06:40pm 18.0 - 10.5 61 4.1 - - - - - - - 0.0
20/06:30pm 18.4 - 10.5 60 4.3 - - - - - - - 0.0
20/06:20pm 18.9 - 10.6 58 4.5 - - - - - - - 0.0
20/06:10pm 18.9 - 10.4 57 4.6 - - - - - - - 0.0
20/06:00pm 19.1 - 10.2 56 4.8 - - - - - - - 0.0
20/05:50pm 19.5 - 10.4 55 5.0 - - - - - - - 0.0
20/05:40pm 20.0 - 9.9 52 5.5 - - - - - - - 0.0
20/05:30pm 20.0 - 10.2 53 5.3 - - - - - - - 0.0
20/05:20pm 19.8 - 10.3 54 5.2 - - - - - - - 0.0
20/05:10pm 20.6 - 10.7 53 5.4 - - - - - - - 0.0
20/05:00pm 20.8 - 10.1 50 5.8 - - - - - - - 0.0
20/04:50pm 21.3 - 10.4 49 6.0 - - - - - - - 0.0
20/04:40pm 21.5 - 10.4 49 6.1 - - - - - - - 0.0
20/04:30pm 20.9 - 10.5 51 5.7 - - - - - - - 0.0
20/04:20pm 20.4 - 10.2 52 5.6 - - - - - - - 0.0
20/04:10pm 20.3 - 10.0 51 5.6 - - - - - - - 0.0
20/04:00pm 20.6 - 10.2 51 5.7 - - - - - - - 0.0
20/03:50pm 21.5 - 10.5 49 6.1 - - - - - - - 0.0
20/03:40pm 21.6 - 10.3 48 6.2 - - - - - - - 0.0
20/03:30pm 21.8 - 10.3 48 6.3 - - - - - - - 0.0
20/03:20pm 22.4 - 9.9 45 6.8 - - - - - - - 0.0
20/03:10pm 21.2 - 9.7 47 6.2 - - - - - - - 0.0
20/03:00pm 21.4 - 10.1 48 6.2 - - - - - - - 0.0
20/02:50pm 21.4 - 10.1 48 6.2 - - - - - - - 0.0
20/02:40pm 21.5 - 10.1 48 6.2 - - - - - - - 0.0
20/02:30pm 21.3 - 9.8 48 6.3 - - - - - - - 0.0
20/02:20pm 21.7 - 10.2 48 6.3 - - - - - - - 0.0
20/02:10pm 22.5 - 9.9 44 6.9 - - - - - - - 0.0
20/02:00pm 23.1 - 11.2 47 6.7 - - - - - - - 0.0
20/01:50pm 23.4 - 9.7 41 7.5 - - - - - - - 0.0
20/01:40pm 22.8 - 10.1 44 7.0 - - - - - - - 0.0
20/01:30pm 24.4 - 11.0 43 7.6 - - - - - - - 0.0
20/01:20pm 23.7 - 10.6 43 7.3 - - - - - - - 0.0
20/01:10pm 22.7 - 10.4 45 6.8 - - - - - - - 0.0
20/01:00pm 22.4 - 9.6 44 7.0 - - - - - - - 0.0
20/12:50pm 21.6 - 9.6 46 6.5 - - - - - - - 0.0
20/12:40pm 22.0 - 10.0 46 6.6 - - - - - - - 0.0
20/12:30pm 22.7 - 10.5 46 6.8 - - - - - - - 0.0
20/12:20pm 23.4 - 10.4 43 7.2 - - - - - - - 0.0
20/12:10pm 21.8 - 9.6 45 6.6 - - - - - - - 0.0
20/12:00pm 21.7 - 10.6 49 6.1 - - - - - - - 0.0
20/11:50am 22.4 - 10.5 47 6.6 - - - - - - - 0.0
20/11:40am 22.7 - 10.2 45 6.9 - - - - - - - 0.0
20/11:30am 23.7 - 11.2 45 7.1 - - - - - - - 0.0
20/11:20am 24.4 - 10.9 42 7.6 - - - - - - - 0.0
20/11:10am 23.9 - 8.9 38 8.1 - - - - - - - 0.0
20/11:00am 23.0 - 9.9 43 7.2 - - - - - - - 0.0
20/10:50am 23.1 - 9.6 42 7.4 - - - - - - - 0.0
20/10:40am 22.8 - 9.4 42 7.3 - - - - - - - 0.0
20/10:30am 22.6 - 10.3 45 6.8 - - - - - - - 0.0
20/10:20am 22.5 - 9.3 43 7.2 - - - - - - - 0.0
20/10:10am 22.9 - 9.8 43 7.2 - - - - - - - 0.0
20/10:00am 23.2 - 8.6 39 7.8 - - - - - - - 0.0
20/09:50am 23.0 - 8.8 40 7.7 - - - - - - - 0.0
20/09:40am 22.4 - 9.3 43 7.1 - - - - - - - 0.0
20/09:30am 22.2 - 9.7 45 6.8 - - - - - - - 0.0
20/09:20am 21.7 - 10.0 47 6.4 - - - - - - - 0.0
20/09:10am 21.3 - 9.9 48 6.2 - - - - - - - 0.0
20/09:00am 21.2 - 10.2 49 6.0 - - - - - - - 0.0
20/08:50am 20.9 - 9.5 48 6.1 - - - - - - - 0.0
20/08:40am 20.3 - 10.3 52 5.5 - - - - - - - 0.0
20/08:30am 19.5 - 10.8 57 4.8 - - - - - - - 0.0
20/08:20am 18.5 - 10.9 61 4.2 - - - - - - - 0.0
20/08:10am 17.3 - 11.2 67 3.3 - - - - - - - 0.0
20/08:00am 16.0 - 11.8 76 2.3 - - - - - - - 0.0
20/07:50am 14.7 - 12.5 87 1.2 - - - - - - - 0.0
20/07:40am 13.7 - 12.5 92 0.7 - - - - - - - 0.0
20/07:30am 12.6 - 12.3 98 0.2 - - - - - - - 0.0
20/07:20am 11.6 - 11.4 99 0.1 - - - - - - - 0.0
20/07:10am 10.9 - 10.7 99 0.1 - - - - - - - 0.0
20/07:00am 10.3 - 10.2 99 0.1 - - - - - - - 0.0
20/06:50am 9.8 - 9.7 99 0.1 - - - - - - - 0.0
20/06:40am 9.6 - 9.5 99 0.1 - - - - - - - 0.0
20/06:30am 9.5 - 9.5 100 0.0 - - - - - - - 0.0
20/06:20am 9.5 - 9.5 100 0.0 - - - - - - - 0.0
20/06:10am 9.7 - 9.6 99 0.1 - - - - - - - 0.0
20/06:00am 9.6 - 9.6 100 0.0 - - - - - - - 0.0
20/05:50am 9.5 - 9.5 100 0.0 - - - - - - - 0.0
20/05:40am 9.6 - 9.6 100 0.0 - - - - - - - 0.0
20/05:30am 9.7 - 9.6 99 0.1 - - - - - - - 0.0
20/05:20am 9.7 - 9.6 99 0.1 - - - - - - - 0.0
20/05:10am 9.7 - 9.7 100 0.0 - - - - - - - 0.0
20/05:00am 9.8 - 9.8 100 0.0 - - - - - - - 0.0
20/04:50am 9.9 - 9.8 99 0.1 - - - - - - - 0.0
20/04:40am 10.1 - 10.0 99 0.1 - - - - - - - 0.0
20/04:30am 10.2 - 10.1 99 0.1 - - - - - - - 0.0
20/04:20am 10.4 - 10.3 99 0.1 - - - - - - - 0.0
20/04:10am 10.5 - 10.3 99 0.1 - - - - - - - 0.0
20/04:00am 10.6 - 10.5 99 0.1 - - - - - - - 0.0
20/03:50am 10.8 - 10.7 99 0.1 - - - - - - - 0.0
20/03:40am 11.0 - 10.9 99 0.1 - - - - - - - 0.0
20/03:30am 11.2 - 11.1 99 0.1 - - - - - - - 0.0
20/03:20am 11.2 - 11.1 99 0.1 - - - - - - - 0.0
20/03:10am 11.4 - 11.2 99 0.1 - - - - - - - 0.0
20/03:00am 11.4 - 11.2 99 0.1 - - - - - - - 0.0
20/02:50am 11.6 - 11.4 99 0.1 - - - - - - - 0.0
20/02:40am 11.6 - 11.4 99 0.1 - - - - - - - 0.0
20/02:30am 11.8 - 11.6 99 0.1 - - - - - - - 0.0
20/02:20am 11.9 - 11.7 99 0.1 - - - - - - - 0.0
20/02:10am 12.1 - 11.9 99 0.1 - - - - - - - 0.0
20/02:00am 12.2 - 12.0 99 0.1 - - - - - - - 0.0
20/01:50am 12.3 - 12.1 99 0.1 - - - - - - - 0.0
20/01:40am 12.4 - 12.1 98 0.2 - - - - - - - 0.0
20/01:30am 12.5 - 12.1 97 0.2 - - - - - - - 0.0
20/01:20am 12.6 - 12.2 97 0.2 - - - - - - - 0.0
20/01:10am 12.8 - 12.4 97 0.2 - - - - - - - 0.0
20/01:00am 13.0 - 12.6 97 0.2 - - - - - - - 0.0
20/12:50am 13.2 - 12.8 97 0.2 - - - - - - - 0.0
20/12:40am 13.3 - 12.8 97 0.3 - - - - - - - 0.0
20/12:30am 13.5 - 12.7 95 0.4 - - - - - - - 0.0
20/12:20am 13.8 - 12.7 93 0.6 - - - - - - - 0.0
20/12:10am 13.9 - 13.1 95 0.4 - - - - - - - 0.0
20/12:00am 14.2 - 13.0 92 0.7 - - - - - - - 0.0
 
Date/Time
EDT
Temp
°C
App
Temp
°C
Dew
Point
°C
Rel
Hum
%
Delta-T
°C
Wind Press
QNH
hPa
Press
MSL
hPa
Rain since
9am
mm
Dir  Spd
km/h
Gust
km/h
Spd
kts
Gust
kts
19/11:50pm 14.5 - 13.2 92 0.7 - - - - - - - 0.0
19/11:40pm 14.8 - 13.1 89 0.9 - - - - - - - 0.0
19/11:30pm 15.1 - 13.2 88 1.1 - - - - - - - 0.0
19/11:20pm 15.4 - 13.1 86 1.3 - - - - - - - 0.0
19/11:10pm 15.8 - 13.0 83 1.6 - - - - - - - 0.0
19/11:00pm 16.1 - 13.3 83 1.6 - - - - - - - 0.0
19/10:50pm 16.2 - 13.7 85 1.4 - - - - - - - 0.0
19/10:40pm 16.3 - 13.8 85 1.4 - - - - - - - 0.0
19/10:30pm 16.3 - 13.7 84 1.5 - - - - - - - 0.0
19/10:20pm 16.2 - 13.3 83 1.6 - - - - - - - 0.0
19/10:10pm 16.2 - 13.7 85 1.4 - - - - - - - 0.0
19/10:00pm 16.2 - 13.8 86 1.4 - - - - - - - 0.0
19/09:50pm 16.2 - 14.2 88 1.1 - - - - - - - 0.0
19/09:40pm 16.3 - 14.3 88 1.2 - - - - - - - 0.0
19/09:30pm 16.4 - 14.2 87 1.3 - - - - - - - 0.0
19/09:20pm 16.5 - 13.9 84 1.5 - - - - - - - 0.0
19/09:10pm 16.6 - 13.8 83 1.6 - - - - - - - 0.0
19/09:00pm 16.7 - 14.0 84 1.5 - - - - - - - 0.0
19/08:50pm 17.0 - 14.1 83 1.7 - - - - - - - 0.0
19/08:40pm 17.3 - 13.8 80 2.0 - - - - - - - 0.0
19/08:30pm 17.6 - 13.5 77 2.3 - - - - - - - 0.0
19/08:20pm 18.0 - 13.6 75 2.5 - - - - - - - 0.0
19/08:10pm 18.4 - 13.3 72 2.9 - - - - - - - 0.0
19/08:00pm 18.8 - 13.1 69 3.2 - - - - - - - 0.0
19/07:50pm 19.4 - 12.9 66 3.7 - - - - - - - 0.0
19/07:40pm 20.1 - 13.2 64 4.0 - - - - - - - 0.0
19/07:30pm 20.7 - 13.5 63 4.2 - - - - - - - 0.0
19/07:20pm 21.2 - 12.7 58 4.9 - - - - - - - 0.0
19/07:10pm 21.5 - 12.0 54 5.4 - - - - - - - 0.0
19/07:00pm 22.0 - 12.8 56 5.3 - - - - - - - 0.0
19/06:50pm 22.3 - 12.2 52 5.8 - - - - - - - 0.0
19/06:40pm 22.7 - 11.7 49 6.2 - - - - - - - 0.0
19/06:30pm 23.1 - 11.4 47 6.6 - - - - - - - 0.0
19/06:20pm 23.4 - 11.4 46 6.8 - - - - - - - 0.0
19/06:10pm 23.8 - 12.4 48 6.6 - - - - - - - 0.0
19/06:00pm 24.5 - 13.1 49 6.7 - - - - - - - 0.0
19/05:50pm 25.2 - 13.8 49 6.8 - - - - - - - 0.0
19/05:40pm 25.3 - 13.7 48 6.9 - - - - - - - 0.0
19/05:30pm 26.0 - 13.9 47 7.2 - - - - - - - 0.0
19/05:20pm 26.2 - 14.0 47 7.3 - - - - - - - 0.0
19/05:10pm 26.7 - 13.4 43 7.9 - - - - - - - 0.0
19/05:00pm 27.4 - 13.0 41 8.5 - - - - - - - 0.0
19/04:50pm 27.6 - 12.3 38 9.0 - - - - - - - 0.0
19/04:40pm 27.6 - 12.4 39 8.9 - - - - - - - 0.0
19/04:30pm 27.8 - 12.3 38 9.1 - - - - - - - 0.0
19/04:20pm 28.3 - 11.8 36 9.6 - - - - - - - 0.0
19/04:10pm 28.8 - 12.1 35 9.8 - - - - - - - 0.0
19/04:00pm 29.0 - 12.4 36 9.8 - - - - - - - 0.0
19/03:50pm 30.6 - 13.5 35 10.3 - - - - - - - 0.0
19/03:40pm 33.9 - -2.7 9 17.3 - - - - - - - 0.0
19/03:30pm 34.0 - -7.2 7 18.1 - - - - - - - 0.0
19/03:20pm 33.8 - -6.3 7 17.9 - - - - - - - 0.0
19/03:10pm 33.7 - -5.5 8 17.7 - - - - - - - 0.0
19/03:00pm 33.7 - -7.3 7 18.0 - - - - - - - 0.0
19/02:50pm 34.1 - -3.8 8 17.6 - - - - - - - 0.0
19/02:40pm 33.5 - -3.7 9 17.3 - - - - - - - 0.0
19/02:30pm 33.3 - -3.9 9 17.2 - - - - - - - 0.0
19/02:20pm 33.4 - -2.8 9 17.0 - - - - - - - 0.0
19/02:10pm 32.6 - 2.3 14 15.4 - - - - - - - 0.0
19/02:00pm 32.1 - 0.8 13 15.5 - - - - - - - 0.0
19/01:50pm 32.5 - 0.9 13 15.7 - - - - - - - 0.0
19/01:40pm 32.7 - 2.4 14 15.5 - - - - - - - 0.0
19/01:30pm 32.5 - -0.3 12 16.0 - - - - - - - 0.0
19/01:20pm 32.3 - 1.3 14 15.5 - - - - - - - 0.0
19/01:10pm 32.1 - -1.4 11 16.0 - - - - - - - 0.0
19/01:00pm 31.7 - -0.6 12 15.6 - - - - - - - 0.0
19/12:50pm 31.4 - -0.7 12 15.4 - - - - - - - 0.0
19/12:40pm 31.5 - -0.2 13 15.4 - - - - - - - 0.0
19/12:30pm 31.1 - 0.1 13 15.1 - - - - - - - 0.0
19/12:20pm 30.8 - 2.2 16 14.4 - - - - - - - 0.0
19/12:10pm 30.3 - -1.1 13 14.9 - - - - - - - 0.0
19/12:00pm 30.2 - -2.5 12 15.1 - - - - - - - 0.0
19/11:50am 30.3 - -1.5 12 15.0 - - - - - - - 0.0
19/11:40am 29.9 - 0.9 15 14.2 - - - - - - - 0.0
19/11:30am 29.6 - 0.1 15 14.2 - - - - - - - 0.0
19/11:20am 29.0 - -0.3 15 13.9 - - - - - - - 0.0
19/11:10am 28.6 - 1.5 17 13.3 - - - - - - - 0.0
19/11:00am 28.1 - 3.8 21 12.3 - - - - - - - 0.0
19/10:50am 27.9 - 7.1 26 11.2 - - - - - - - 0.0
19/10:40am 27.2 - 6.1 26 11.1 - - - - - - - 0.0
19/10:30am 26.1 - 8.4 32 9.6 - - - - - - - 0.0
19/10:20am 24.9 - 10.1 39 8.2 - - - - - - - 0.0
19/10:10am 24.9 - 8.8 36 8.8 - - - - - - - 0.0
19/10:00am 24.5 - 9.1 37 8.4 - - - - - - - 0.0
19/09:50am 24.0 - 10.4 42 7.6 - - - - - - - 0.0
19/09:40am 23.6 - 10.2 42 7.4 - - - - - - - 0.0
19/09:30am 23.1 - 10.7 45 6.9 - - - - - - - 0.0
19/09:20am 22.0 - 10.9 49 6.2 - - - - - - - 0.0
19/09:10am 21.2 - 11.4 53 5.5 - - - - - - - 0.0
19/09:00am 20.4 - 11.1 55 5.2 - - - - - - - 0.0
19/08:50am 19.8 - 13.2 65 3.8 - - - - - - - 0.0
19/08:40am 18.8 - 11.9 64 3.8 - - - - - - - 0.0
19/08:30am 18.3 - 11.9 66 3.6 - - - - - - - 0.0
19/08:20am 17.7 - 12.1 69 3.1 - - - - - - - 0.0
19/08:10am 16.9 - 12.2 74 2.6 - - - - - - - 0.0
19/08:00am 16.2 - 11.6 74 2.5 - - - - - - - 0.0
19/07:50am 15.5 - 11.7 78 2.1 - - - - - - - 0.0
19/07:40am 14.7 - 10.8 77 2.1 - - - - - - - 0.0
19/07:30am 13.7 - 10.8 83 1.5 - - - - - - - 0.0
19/07:20am 12.7 - 10.9 89 1.0 - - - - - - - 0.0
19/07:10am 12.3 - 10.9 91 0.7 - - - - - - - 0.0
19/07:00am 12.1 - 10.6 90 0.8 - - - - - - - 0.0
19/06:50am 11.8 - 10.9 94 0.5 - - - - - - - 0.0
19/06:40am 11.4 - 10.8 96 0.3 - - - - - - - 0.0
19/06:30am 11.3 - 10.4 94 0.5 - - - - - - - 0.0
19/06:20am 11.3 - 10.4 94 0.5 - - - - - - - 0.0
19/06:10am 11.3 - 10.5 95 0.4 - - - - - - - 0.0
19/06:00am 11.3 - 10.5 95 0.4 - - - - - - - 0.0
19/05:50am 11.3 - 10.5 95 0.4 - - - - - - - 0.0

Other formats

Comma delimited format used in spreadsheet applications
http://www.bom.gov.au/fwo/IDN60801/IDN60801.99754.axf

JavaScript Object Notation format (JSON) in row-major order
http://www.bom.gov.au/fwo/IDN60801/IDN60801.99754.json

Data quality

Most of these data are generated automatically and are frequently updated. Quality checks on data are not normally performed. It is possible for incorrect values to appear. Refer to information at About Latest Weather Observations and please check the disclaimer before using these data.